This is the latest recevied weather packets stored in our database for station/object IT9DBI-3. If no packets are shown the sender has not sent any weather packets the latest 10 day(s).
| Time | Temp. | Humidity | Pressure | Rain* | Wind** | Luminosity | Snow |
|---|---|---|---|---|---|---|---|
| 1788319194 | 30.56° C | 56% | 1016.8 hPa | - | - | - | - |
| 1788317993 | 30.56° C | 56% | 1016.8 hPa | - | - | - | - |
| 1788316791 | 30° C | 58% | 1016.9 hPa | - | - | - | - |
| 1788315600 | 30.56° C | 56% | 1016.9 hPa | - | - | - | - |
| 1788314389 | 30.56° C | 58% | 1017.1 hPa | - | - | - | - |
| 1788313187 | 31.11° C | 57% | 1016.9 hPa | - | - | - | - |
| 1788311986 | 31.11° C | 55% | 1016.8 hPa | - | - | - | - |
| 1788310785 | 30.56° C | 58% | 1016.9 hPa | - | - | - | - |
| 1788309584 | 31.11° C | 56% | 1016.9 hPa | - | - | - | - |
| 1788308382 | 30.56° C | 58% | 1016.9 hPa | - | - | - | - |
| 1788307181 | 30.56° C | 58% | 1016.9 hPa | - | - | - | - |
| 1788305980 | 31.11° C | 56% | 1017 hPa | - | - | - | - |
| 1788304778 | 30.56° C | 57% | 1017 hPa | - | - | - | - |
| 1788303577 | 31.11° C | 56% | 1016.9 hPa | - | - | - | - |
| 1788302376 | 31.67° C | 55% | 1016.8 hPa | - | - | - | - |
| 1788301175 | 31.67° C | 54% | 1016.7 hPa | - | - | - | - |
| 1788299973 | 31.11° C | 55% | 1016.6 hPa | - | - | - | - |
| 1788298772 | 31.67° C | 54% | 1016.7 hPa | - | - | - | - |
| 1788297571 | 32.22° C | 52% | 1016.6 hPa | - | - | - | - |
| 1788296370 | 31.67° C | 55% | 1016.7 hPa | - | - | - | - |
| 1788295168 | 31.11° C | 55% | 1016.7 hPa | - | - | - | - |
| 1788293966 | 30.56° C | 56% | 1016.8 hPa | - | - | - | - |
| 1788292765 | 30° C | 58% | 1017 hPa | - | - | - | - |
| 1788291564 | 31.11° C | 55% | 1016.9 hPa | - | - | - | - |
| 1788290362 | 31.11° C | 54% | 1016.8 hPa | - | - | - | - |
* Rain since midnight (hover to see other rain measurements)
** Current wind speed in m/s (hover to see current wind gust speed)